Mae Sot, Thailand
Current Conditions -  °F | °C
As of 8:00 PM on Friday 24 Oct 2014 (Local Time) from VTPP Reporting Station
Broken Clouds Broken Clouds  
Wind Chill: 25°   Ceiling: 30000
Heat Index: 26°   Visibility: 4mi
Dew Point: 23°   Wind: 0mph
Humidity: 89%   Direction: NA
Pressure: 29.85"   Gusts: NA
Location:  16.71°N, 98.57°E
Report Text: VTPP 241300Z 00000KT 7000 SCT025 BKN300 25/23 Q1011
Loading
Personal Weather Stations






























Interactive Weather Map
Tropical Storm Tracking
New forecast layout! Learn more

10-Day Weather Forecast

Advertisements
Track Severe Weather on mobile